sensor_id;sensor_type;location;lat;lon;timestamp;temperature;humidity
70076;DHT22;57446;51.056;3.712;2022-07-11T00:00:20;20.10;67.50
70076;DHT22;57446;51.056;3.712;2022-07-11T00:03:09;20.00;67.20
70076;DHT22;57446;51.056;3.712;2022-07-11T00:05:58;20.00;68.00
70076;DHT22;57446;51.056;3.712;2022-07-11T00:40:06;19.80;69.60
70076;DHT22;57446;51.056;3.712;2022-07-11T00:43:06;19.80;69.90
70076;DHT22;57446;51.056;3.712;2022-07-11T00:45:57;19.70;70.30
70076;DHT22;57446;51.056;3.712;2022-07-11T00:48:51;19.80;70.40
70076;DHT22;57446;51.056;3.712;2022-07-11T00:54:26;19.70;70.60
70076;DHT22;57446;51.056;3.712;2022-07-11T00:57:24;19.70;70.70
70076;DHT22;57446;51.056;3.712;2022-07-11T01:00:08;19.70;70.90
70076;DHT22;57446;51.056;3.712;2022-07-11T01:03:00;19.60;71.10
70076;DHT22;57446;51.056;3.712;2022-07-11T01:12:06;19.50;71.40
70076;DHT22;57446;51.056;3.712;2022-07-11T01:17:58;19.50;71.80
70076;DHT22;57446;51.056;3.712;2022-07-11T01:20:50;19.50;71.70
70076;DHT22;57446;51.056;3.712;2022-07-11T01:26:43;19.50;71.90
70076;DHT22;57446;51.056;3.712;2022-07-11T01:29:25;19.50;71.60
70076;DHT22;57446;51.056;3.712;2022-07-11T01:32:22;19.60;70.60
70076;DHT22;57446;51.056;3.712;2022-07-11T01:39:18;19.40;70.90
70076;DHT22;57446;51.056;3.712;2022-07-11T01:42:07;19.30;71.10
70076;DHT22;57446;51.056;3.712;2022-07-11T01:48:27;19.20;71.80
70076;DHT22;57446;51.056;3.712;2022-07-11T01:58:26;19.20;72.30
70076;DHT22;57446;51.056;3.712;2022-07-11T02:01:33;19.10;72.10
70076;DHT22;57446;51.056;3.712;2022-07-11T02:04:21;19.20;72.30
70076;DHT22;57446;51.056;3.712;2022-07-11T02:17:05;19.00;72.80
70076;DHT22;57446;51.056;3.712;2022-07-11T02:19:56;18.90;72.90
70076;DHT22;57446;51.056;3.712;2022-07-11T02:22:42;18.90;73.00
70076;DHT22;57446;51.056;3.712;2022-07-11T02:25:44;19.00;73.10
70076;DHT22;57446;51.056;3.712;2022-07-11T02:28:43;18.90;73.20
70076;DHT22;57446;51.056;3.712;2022-07-11T02:31:38;18.80;73.60
70076;DHT22;57446;51.056;3.712;2022-07-11T02:34:39;18.70;73.80
70076;DHT22;57446;51.056;3.712;2022-07-11T02:37:37;18.80;74.10
70076;DHT22;57446;51.056;3.712;2022-07-11T02:40:27;18.70;73.90
70076;DHT22;57446;51.056;3.712;2022-07-11T03:07:20;18.60;74.60
70076;DHT22;57446;51.056;3.712;2022-07-11T03:10:30;18.50;75.00
70076;DHT22;57446;51.056;3.712;2022-07-11T03:13:10;18.50;75.10
70076;DHT22;57446;51.056;3.712;2022-07-11T03:15:57;18.50;75.40
70076;DHT22;57446;51.056;3.712;2022-07-11T03:18:53;18.40;75.70
70076;DHT22;57446;51.056;3.712;2022-07-11T03:25:13;18.50;75.90
70076;DHT22;57446;51.056;3.712;2022-07-11T03:28:08;18.50;75.30
70076;DHT22;57446;51.056;3.712;2022-07-11T03:36:43;18.50;75.70
70076;DHT22;57446;51.056;3.712;2022-07-11T03:39:31;18.40;75.70
70076;DHT22;57446;51.056;3.712;2022-07-11T03:42:46;18.30;76.10
70076;DHT22;57446;51.056;3.712;2022-07-11T03:45:34;18.30;76.60
70076;DHT22;57446;51.056;3.712;2022-07-11T03:48:30;18.20;77.30
70076;DHT22;57446;51.056;3.712;2022-07-11T03:51:16;18.20;77.50
70076;DHT22;57446;51.056;3.712;2022-07-11T03:54:21;18.30;77.40
70076;DHT22;57446;51.056;3.712;2022-07-11T04:02:53;18.40;77.10
70076;DHT22;57446;51.056;3.712;2022-07-11T04:11:47;18.50;77.00
70076;DHT22;57446;51.056;3.712;2022-07-11T04:14:43;18.50;76.60
70076;DHT22;57446;51.056;3.712;2022-07-11T04:21:17;18.50;76.90
70076;DHT22;57446;51.056;3.712;2022-07-11T04:24:16;18.50;76.50
70076;DHT22;57446;51.056;3.712;2022-07-11T04:30:35;18.40;76.90
70076;DHT22;57446;51.056;3.712;2022-07-11T04:40:15;18.40;77.10
70076;DHT22;57446;51.056;3.712;2022-07-11T04:59:34;18.70;76.50
70076;DHT22;57446;51.056;3.712;2022-07-11T05:05:24;18.70;75.90
70076;DHT22;57446;51.056;3.712;2022-07-11T05:08:29;18.80;75.90
70076;DHT22;57446;51.056;3.712;2022-07-11T05:11:23;18.70;75.60
70076;DHT22;57446;51.056;3.712;2022-07-11T05:14:13;18.70;76.20
70076;DHT22;57446;51.056;3.712;2022-07-11T05:17:12;18.60;76.50
70076;DHT22;57446;51.056;3.712;2022-07-11T05:20:05;18.70;76.80
70076;DHT22;57446;51.056;3.712;2022-07-11T05:31:58;18.70;76.90
70076;DHT22;57446;51.056;3.712;2022-07-11T05:34:55;18.70;77.30
70076;DHT22;57446;51.056;3.712;2022-07-11T05:37:54;18.90;77.20
70076;DHT22;57446;51.056;3.712;2022-07-11T05:40:34;18.90;76.70
70076;DHT22;57446;51.056;3.712;2022-07-11T05:43:37;18.90;77.10
70076;DHT22;57446;51.056;3.712;2022-07-11T05:46:14;19.00;77.10
70076;DHT22;57446;51.056;3.712;2022-07-11T05:49:06;19.10;76.90
70076;DHT22;57446;51.056;3.712;2022-07-11T05:51:53;19.20;76.90
70076;DHT22;57446;51.056;3.712;2022-07-11T05:54:42;19.30;76.70
70076;DHT22;57446;51.056;3.712;2022-07-11T05:57:29;19.20;78.30
70076;DHT22;57446;51.056;3.712;2022-07-11T06:00:17;19.20;79.30
70076;DHT22;57446;51.056;3.712;2022-07-11T06:03:09;19.40;79.30
70076;DHT22;57446;51.056;3.712;2022-07-11T06:06:23;19.40;79.10
70076;DHT22;57446;51.056;3.712;2022-07-11T06:15:36;19.20;80.10
70076;DHT22;57446;51.056;3.712;2022-07-11T06:18:31;19.30;79.90
70076;DHT22;57446;51.056;3.712;2022-07-11T06:21:19;19.40;79.50
70076;DHT22;57446;51.056;3.712;2022-07-11T06:24:08;19.40;79.20
70076;DHT22;57446;51.056;3.712;2022-07-11T06:26:57;19.40;79.20
70076;DHT22;57446;51.056;3.712;2022-07-11T06:29:46;19.50;79.00
70076;DHT22;57446;51.056;3.712;2022-07-11T06:32:36;19.50;78.60
70076;DHT22;57446;51.056;3.712;2022-07-11T06:35:27;19.60;78.40
70076;DHT22;57446;51.056;3.712;2022-07-11T06:38:14;19.60;78.10
70076;DHT22;57446;51.056;3.712;2022-07-11T06:41:04;19.80;77.40
70076;DHT22;57446;51.056;3.712;2022-07-11T06:43:52;20.00;77.20
70076;DHT22;57446;51.056;3.712;2022-07-11T06:46:42;20.00;77.00
70076;DHT22;57446;51.056;3.712;2022-07-11T06:49:48;19.80;77.40
70076;DHT22;57446;51.056;3.712;2022-07-11T06:53:06;19.60;78.40
70076;DHT22;57446;51.056;3.712;2022-07-11T06:56:12;19.70;78.40
70076;DHT22;57446;51.056;3.712;2022-07-11T06:59:16;19.90;77.50
70076;DHT22;57446;51.056;3.712;2022-07-11T07:02:04;20.00;76.50
70076;DHT22;57446;51.056;3.712;2022-07-11T07:04:51;19.90;77.00
70076;DHT22;57446;51.056;3.712;2022-07-11T07:07:41;19.70;77.50
70076;DHT22;57446;51.056;3.712;2022-07-11T07:10:27;19.70;77.50
70076;DHT22;57446;51.056;3.712;2022-07-11T07:13:29;20.10;75.90
70076;DHT22;57446;51.056;3.712;2022-07-11T07:16:27;20.00;76.00
70076;DHT22;57446;51.056;3.712;2022-07-11T07:23:02;20.30;74.20
70076;DHT22;57446;51.056;3.712;2022-07-11T07:26:04;20.30;71.90
70076;DHT22;57446;51.056;3.712;2022-07-11T07:29:26;20.40;72.60
70076;DHT22;57446;51.056;3.712;2022-07-11T07:35:42;21.30;68.70
70076;DHT22;57446;51.056;3.712;2022-07-11T07:38:58;22.80;63.10
70076;DHT22;57446;51.056;3.712;2022-07-11T07:41:48;24.50;56.10
70076;DHT22;57446;51.056;3.712;2022-07-11T07:44:35;26.70;52.20
70076;DHT22;57446;51.056;3.712;2022-07-11T07:47:37;28.30;45.90
70076;DHT22;57446;51.056;3.712;2022-07-11T07:50:14;29.60;42.50
70076;DHT22;57446;51.056;3.712;2022-07-11T07:53:09;30.20;40.00
70076;DHT22;57446;51.056;3.712;2022-07-11T07:56:07;31.80;37.90
70076;DHT22;57446;51.056;3.712;2022-07-11T07:58:57;31.90;36.20
70076;DHT22;57446;51.056;3.712;2022-07-11T08:01:50;33.60;32.90
70076;DHT22;57446;51.056;3.712;2022-07-11T08:04:37;33.70;32.70
70076;DHT22;57446;51.056;3.712;2022-07-11T08:07:29;33.10;34.00
70076;DHT22;57446;51.056;3.712;2022-07-11T08:10:16;34.30;31.00
70076;DHT22;57446;51.056;3.712;2022-07-11T08:16:05;35.20;30.20
70076;DHT22;57446;51.056;3.712;2022-07-11T08:18:55;35.60;30.00
70076;DHT22;57446;51.056;3.712;2022-07-11T08:21:49;34.20;31.40
70076;DHT22;57446;51.056;3.712;2022-07-11T08:24:36;33.10;32.50
70076;DHT22;57446;51.056;3.712;2022-07-11T08:27:22;34.50;31.10
70076;DHT22;57446;51.056;3.712;2022-07-11T08:30:13;36.50;28.80
70076;DHT22;57446;51.056;3.712;2022-07-11T08:33:01;37.20;27.40
70076;DHT22;57446;51.056;3.712;2022-07-11T08:35:49;37.40;26.60
70076;DHT22;57446;51.056;3.712;2022-07-11T08:38:39;38.70;25.90
70076;DHT22;57446;51.056;3.712;2022-07-11T08:41:43;39.00;24.60
70076;DHT22;57446;51.056;3.712;2022-07-11T08:44:19;40.60;23.80
70076;DHT22;57446;51.056;3.712;2022-07-11T08:50:27;40.90;22.50
70076;DHT22;57446;51.056;3.712;2022-07-11T08:53:17;41.00;22.90
70076;DHT22;57446;51.056;3.712;2022-07-11T08:56:08;40.80;22.60
70076;DHT22;57446;51.056;3.712;2022-07-11T08:59:02;40.70;23.10
70076;DHT22;57446;51.056;3.712;2022-07-11T09:01:52;40.40;22.90
70076;DHT22;57446;51.056;3.712;2022-07-11T09:04:42;41.00;22.60
70076;DHT22;57446;51.056;3.712;2022-07-11T09:08:19;40.70;22.90
70076;DHT22;57446;51.056;3.712;2022-07-11T09:10:39;40.40;23.20
70076;DHT22;57446;51.056;3.712;2022-07-11T09:13:21;40.40;23.20
70076;DHT22;57446;51.056;3.712;2022-07-11T09:16:21;40.40;22.10
70076;DHT22;57446;51.056;3.712;2022-07-11T09:18:58;40.30;23.10
70076;DHT22;57446;51.056;3.712;2022-07-11T09:25:43;42.20;21.90
70076;DHT22;57446;51.056;3.712;2022-07-11T09:28:52;42.50;21.00
70076;DHT22;57446;51.056;3.712;2022-07-11T09:31:28;42.70;20.40
70076;DHT22;57446;51.056;3.712;2022-07-11T09:34:21;43.40;20.60
70076;DHT22;57446;51.056;3.712;2022-07-11T09:37:22;43.90;20.40
70076;DHT22;57446;51.056;3.712;2022-07-11T09:40:14;44.30;19.80
70076;DHT22;57446;51.056;3.712;2022-07-11T09:43:02;44.50;19.40
70076;DHT22;57446;51.056;3.712;2022-07-11T09:46:04;44.00;19.70
70076;DHT22;57446;51.056;3.712;2022-07-11T09:48:51;44.30;19.70
70076;DHT22;57446;51.056;3.712;2022-07-11T09:51:50;44.40;19.20
70076;DHT22;57446;51.056;3.712;2022-07-11T09:55:24;43.40;19.70
70076;DHT22;57446;51.056;3.712;2022-07-11T09:57:48;43.40;20.30
70076;DHT22;57446;51.056;3.712;2022-07-11T10:00:43;44.00;19.80
70076;DHT22;57446;51.056;3.712;2022-07-11T10:03:38;44.80;19.50
70076;DHT22;57446;51.056;3.712;2022-07-11T10:09:15;43.60;19.90
70076;DHT22;57446;51.056;3.712;2022-07-11T10:12:03;43.40;20.50
70076;DHT22;57446;51.056;3.712;2022-07-11T10:14:54;44.10;19.90
70076;DHT22;57446;51.056;3.712;2022-07-11T10:18:09;44.80;19.00
70076;DHT22;57446;51.056;3.712;2022-07-11T10:21:15;44.70;19.50
70076;DHT22;57446;51.056;3.712;2022-07-11T10:27:25;45.80;18.30
70076;DHT22;57446;51.056;3.712;2022-07-11T10:30:15;46.00;18.00
70076;DHT22;57446;51.056;3.712;2022-07-11T10:40:00;45.00;18.20
70076;DHT22;57446;51.056;3.712;2022-07-11T10:43:00;45.60;18.10
70076;DHT22;57446;51.056;3.712;2022-07-11T10:46:18;44.50;18.30
70076;DHT22;57446;51.056;3.712;2022-07-11T10:52:19;45.20;18.30
70076;DHT22;57446;51.056;3.712;2022-07-11T10:58:19;45.10;18.30
70076;DHT22;57446;51.056;3.712;2022-07-11T11:01:19;45.30;18.50
70076;DHT22;57446;51.056;3.712;2022-07-11T11:04:41;45.40;18.10
70076;DHT22;57446;51.056;3.712;2022-07-11T11:07:44;45.50;18.20
70076;DHT22;57446;51.056;3.712;2022-07-11T11:10:44;45.50;18.00
70076;DHT22;57446;51.056;3.712;2022-07-11T11:13:36;43.90;19.70
70076;DHT22;57446;51.056;3.712;2022-07-11T11:16:23;43.00;20.90
70076;DHT22;57446;51.056;3.712;2022-07-11T11:22:34;45.20;19.40
70076;DHT22;57446;51.056;3.712;2022-07-11T11:25:30;47.10;17.40
70076;DHT22;57446;51.056;3.712;2022-07-11T11:28:26;48.40;17.40
70076;DHT22;57446;51.056;3.712;2022-07-11T11:31:12;48.90;16.30
70076;DHT22;57446;51.056;3.712;2022-07-11T11:34:03;48.90;16.70
70076;DHT22;57446;51.056;3.712;2022-07-11T11:36:58;49.40;15.90
70076;DHT22;57446;51.056;3.712;2022-07-11T11:39:48;50.20;15.30
70076;DHT22;57446;51.056;3.712;2022-07-11T11:42:44;49.10;16.00
70076;DHT22;57446;51.056;3.712;2022-07-11T11:45:46;50.20;14.90
70076;DHT22;57446;51.056;3.712;2022-07-11T11:48:38;50.30;14.70
70076;DHT22;57446;51.056;3.712;2022-07-11T11:51:36;50.20;14.50
70076;DHT22;57446;51.056;3.712;2022-07-11T11:57:28;51.40;14.40
70076;DHT22;57446;51.056;3.712;2022-07-11T12:00:22;51.10;14.10
70076;DHT22;57446;51.056;3.712;2022-07-11T12:06:02;49.70;14.30
70076;DHT22;57446;51.056;3.712;2022-07-11T12:09:23;49.70;14.40
70076;DHT22;57446;51.056;3.712;2022-07-11T12:12:32;49.70;14.30
70076;DHT22;57446;51.056;3.712;2022-07-11T12:15:37;48.00;15.80
70076;DHT22;57446;51.056;3.712;2022-07-11T12:18:42;46.40;16.40
70076;DHT22;57446;51.056;3.712;2022-07-11T12:21:36;46.00;16.80
70076;DHT22;57446;51.056;3.712;2022-07-11T12:24:34;45.10;17.20
70076;DHT22;57446;51.056;3.712;2022-07-11T12:27:28;44.90;17.80
70076;DHT22;57446;51.056;3.712;2022-07-11T12:30:25;45.20;17.40
70076;DHT22;57446;51.056;3.712;2022-07-11T12:33:19;45.70;16.90
70076;DHT22;57446;51.056;3.712;2022-07-11T12:36:06;44.00;17.10
70076;DHT22;57446;51.056;3.712;2022-07-11T12:38:58;42.70;18.40
70076;DHT22;57446;51.056;3.712;2022-07-11T12:41:44;42.10;19.10
70076;DHT22;57446;51.056;3.712;2022-07-11T12:44:37;40.80;19.60
70076;DHT22;57446;51.056;3.712;2022-07-11T12:51:04;38.00;21.70
70076;DHT22;57446;51.056;3.712;2022-07-11T12:53:49;37.30;23.60
70076;DHT22;57446;51.056;3.712;2022-07-11T12:56:40;36.00;25.80
70076;DHT22;57446;51.056;3.712;2022-07-11T12:59:43;35.50;26.80
70076;DHT22;57446;51.056;3.712;2022-07-11T13:02:34;33.90;28.70
70076;DHT22;57446;51.056;3.712;2022-07-11T13:05:51;33.60;29.30
70076;DHT22;57446;51.056;3.712;2022-07-11T13:15:58;32.70;30.50
70076;DHT22;57446;51.056;3.712;2022-07-11T13:18:56;32.40;30.70
70076;DHT22;57446;51.056;3.712;2022-07-11T13:22:03;32.20;30.90
70076;DHT22;57446;51.056;3.712;2022-07-11T13:31:28;31.80;33.30
70076;DHT22;57446;51.056;3.712;2022-07-11T13:34:39;31.60;33.10
70076;DHT22;57446;51.056;3.712;2022-07-11T13:40:53;31.40;32.90
70076;DHT22;57446;51.056;3.712;2022-07-11T13:44:02;31.40;32.70
70076;DHT22;57446;51.056;3.712;2022-07-11T13:47:16;31.00;32.80
70076;DHT22;57446;51.056;3.712;2022-07-11T13:49:49;30.70;33.90
70076;DHT22;57446;51.056;3.712;2022-07-11T13:52:40;30.80;34.20
70076;DHT22;57446;51.056;3.712;2022-07-11T13:55:47;30.80;34.50
70076;DHT22;57446;51.056;3.712;2022-07-11T13:58:37;31.00;34.50
70076;DHT22;57446;51.056;3.712;2022-07-11T14:01:28;31.10;34.80
70076;DHT22;57446;51.056;3.712;2022-07-11T14:04:16;31.10;34.40
70076;DHT22;57446;51.056;3.712;2022-07-11T14:07:15;31.20;33.90
70076;DHT22;57446;51.056;3.712;2022-07-11T14:10:05;31.00;34.10
70076;DHT22;57446;51.056;3.712;2022-07-11T14:13:04;31.10;33.70
70076;DHT22;57446;51.056;3.712;2022-07-11T14:15:44;31.10;34.30
70076;DHT22;57446;51.056;3.712;2022-07-11T14:18:41;31.10;34.40
70076;DHT22;57446;51.056;3.712;2022-07-11T14:21:26;31.20;33.50
70076;DHT22;57446;51.056;3.712;2022-07-11T14:24:33;31.30;33.30
70076;DHT22;57446;51.056;3.712;2022-07-11T14:27:25;31.20;33.50
70076;DHT22;57446;51.056;3.712;2022-07-11T14:30:08;31.20;34.70
70076;DHT22;57446;51.056;3.712;2022-07-11T14:33:01;31.50;34.50
70076;DHT22;57446;51.056;3.712;2022-07-11T14:35:49;31.70;33.10
70076;DHT22;57446;51.056;3.712;2022-07-11T14:38:44;31.80;32.80
70076;DHT22;57446;51.056;3.712;2022-07-11T14:41:38;31.80;32.60
70076;DHT22;57446;51.056;3.712;2022-07-11T14:44:24;31.60;32.70
70076;DHT22;57446;51.056;3.712;2022-07-11T14:47:18;31.40;32.80
70076;DHT22;57446;51.056;3.712;2022-07-11T14:50:08;31.30;33.00
70076;DHT22;57446;51.056;3.712;2022-07-11T14:52:54;31.10;33.70
70076;DHT22;57446;51.056;3.712;2022-07-11T14:58:36;31.10;34.60
70076;DHT22;57446;51.056;3.712;2022-07-11T15:01:23;31.30;33.80
70076;DHT22;57446;51.056;3.712;2022-07-11T15:04:14;31.50;33.80
70076;DHT22;57446;51.056;3.712;2022-07-11T15:07:02;31.60;33.00
70076;DHT22;57446;51.056;3.712;2022-07-11T15:10:10;31.60;32.90
70076;DHT22;57446;51.056;3.712;2022-07-11T15:13:24;31.50;33.20
70076;DHT22;57446;51.056;3.712;2022-07-11T15:16:11;31.30;33.50
70076;DHT22;57446;51.056;3.712;2022-07-11T15:19:04;31.30;33.30
70076;DHT22;57446;51.056;3.712;2022-07-11T15:21:48;31.30;34.20
70076;DHT22;57446;51.056;3.712;2022-07-11T15:24:40;31.20;33.80
70076;DHT22;57446;51.056;3.712;2022-07-11T15:27:31;31.00;33.80
70076;DHT22;57446;51.056;3.712;2022-07-11T15:30:28;31.00;33.60
70076;DHT22;57446;51.056;3.712;2022-07-11T15:33:26;30.70;34.10
70076;DHT22;57446;51.056;3.712;2022-07-11T15:36:16;30.80;34.10
70076;DHT22;57446;51.056;3.712;2022-07-11T15:39:15;30.90;34.00
70076;DHT22;57446;51.056;3.712;2022-07-11T15:42:10;31.00;34.40
70076;DHT22;57446;51.056;3.712;2022-07-11T15:45:02;31.10;34.40
70076;DHT22;57446;51.056;3.712;2022-07-11T15:48:01;31.10;33.20
70076;DHT22;57446;51.056;3.712;2022-07-11T15:50:52;31.00;33.10
70076;DHT22;57446;51.056;3.712;2022-07-11T15:53:40;31.00;32.70
70076;DHT22;57446;51.056;3.712;2022-07-11T15:56:46;31.00;33.20
70076;DHT22;57446;51.056;3.712;2022-07-11T15:59:21;31.10;32.80
70076;DHT22;57446;51.056;3.712;2022-07-11T16:02:08;30.60;33.40
70076;DHT22;57446;51.056;3.712;2022-07-11T16:05:02;30.60;33.50
70076;DHT22;57446;51.056;3.712;2022-07-11T16:07:56;30.60;33.00
70076;DHT22;57446;51.056;3.712;2022-07-11T16:10:44;30.50;34.00
70076;DHT22;57446;51.056;3.712;2022-07-11T16:13:34;30.50;33.30
70076;DHT22;57446;51.056;3.712;2022-07-11T16:16:22;30.60;33.00
70076;DHT22;57446;51.056;3.712;2022-07-11T16:19:28;30.50;33.50
70076;DHT22;57446;51.056;3.712;2022-07-11T16:22:15;30.20;32.90
70076;DHT22;57446;51.056;3.712;2022-07-11T16:28:50;30.20;31.80
70076;DHT22;57446;51.056;3.712;2022-07-11T16:32:07;30.00;31.40
70076;DHT22;57446;51.056;3.712;2022-07-11T16:34:37;30.20;31.60
70076;DHT22;57446;51.056;3.712;2022-07-11T16:37:47;30.30;30.60
70076;DHT22;57446;51.056;3.712;2022-07-11T16:40:29;30.10;30.90
70076;DHT22;57446;51.056;3.712;2022-07-11T16:43:36;30.10;31.70
70076;DHT22;57446;51.056;3.712;2022-07-11T16:46:37;30.00;32.10
70076;DHT22;57446;51.056;3.712;2022-07-11T16:49:25;29.80;33.10
70076;DHT22;57446;51.056;3.712;2022-07-11T16:52:24;30.00;33.10
70076;DHT22;57446;51.056;3.712;2022-07-11T16:55:17;30.30;33.40
70076;DHT22;57446;51.056;3.712;2022-07-11T16:58:20;30.40;34.10
70076;DHT22;57446;51.056;3.712;2022-07-11T17:01:05;30.40;34.20
70076;DHT22;57446;51.056;3.712;2022-07-11T17:17:01;29.80;35.30
70076;DHT22;57446;51.056;3.712;2022-07-11T17:20:10;29.80;35.40
70076;DHT22;57446;51.056;3.712;2022-07-11T17:23:00;29.60;35.40
70076;DHT22;57446;51.056;3.712;2022-07-11T17:26:11;29.40;35.40
70076;DHT22;57446;51.056;3.712;2022-07-11T17:28:59;29.40;35.60
70076;DHT22;57446;51.056;3.712;2022-07-11T17:34:58;29.30;35.60
70076;DHT22;57446;51.056;3.712;2022-07-11T17:40:32;29.20;34.90
70076;DHT22;57446;51.056;3.712;2022-07-11T17:43:26;29.20;34.80
70076;DHT22;57446;51.056;3.712;2022-07-11T17:52:08;28.80;34.50
70076;DHT22;57446;51.056;3.712;2022-07-11T17:55:11;28.70;33.90
70076;DHT22;57446;51.056;3.712;2022-07-11T17:57:55;28.70;33.80
70076;DHT22;57446;51.056;3.712;2022-07-11T18:00:56;28.70;33.60
70076;DHT22;57446;51.056;3.712;2022-07-11T18:03:51;28.50;32.80
70076;DHT22;57446;51.056;3.712;2022-07-11T18:06:38;28.40;32.20
70076;DHT22;57446;51.056;3.712;2022-07-11T18:09:30;28.30;32.30
70076;DHT22;57446;51.056;3.712;2022-07-11T18:12:17;28.30;31.90
70076;DHT22;57446;51.056;3.712;2022-07-11T18:15:11;28.20;31.10
70076;DHT22;57446;51.056;3.712;2022-07-11T18:18:03;28.20;31.30
70076;DHT22;57446;51.056;3.712;2022-07-11T18:20:59;28.10;32.20
70076;DHT22;57446;51.056;3.712;2022-07-11T18:23:50;28.20;32.60
70076;DHT22;57446;51.056;3.712;2022-07-11T18:26:41;28.10;33.30
70076;DHT22;57446;51.056;3.712;2022-07-11T18:29:34;28.10;34.70
70076;DHT22;57446;51.056;3.712;2022-07-11T18:32:38;28.10;35.00
70076;DHT22;57446;51.056;3.712;2022-07-11T18:35:24;28.00;35.50
70076;DHT22;57446;51.056;3.712;2022-07-11T18:38:20;27.80;36.70
70076;DHT22;57446;51.056;3.712;2022-07-11T18:41:14;27.70;37.00
70076;DHT22;57446;51.056;3.712;2022-07-11T18:44:08;27.60;37.50
70076;DHT22;57446;51.056;3.712;2022-07-11T18:47:05;27.40;39.00
70076;DHT22;57446;51.056;3.712;2022-07-11T18:50:07;27.30;40.00
70076;DHT22;57446;51.056;3.712;2022-07-11T18:52:58;27.20;40.90
70076;DHT22;57446;51.056;3.712;2022-07-11T18:55:59;27.00;41.80
70076;DHT22;57446;51.056;3.712;2022-07-11T18:58:44;26.90;42.90
70076;DHT22;57446;51.056;3.712;2022-07-11T19:04:52;26.80;44.30
70076;DHT22;57446;51.056;3.712;2022-07-11T19:07:51;26.70;44.80
70076;DHT22;57446;51.056;3.712;2022-07-11T19:10:37;26.60;45.10
70076;DHT22;57446;51.056;3.712;2022-07-11T19:16:41;26.40;46.20
70076;DHT22;57446;51.056;3.712;2022-07-11T19:19:41;26.30;46.80
70076;DHT22;57446;51.056;3.712;2022-07-11T19:28:18;26.10;47.40
70076;DHT22;57446;51.056;3.712;2022-07-11T19:31:14;26.10;47.70
70076;DHT22;57446;51.056;3.712;2022-07-11T20:21:09;25.30;52.10
70076;DHT22;57446;51.056;3.712;2022-07-11T20:24:01;25.30;53.20
70076;DHT22;57446;51.056;3.712;2022-07-11T20:33:30;25.00;55.90
70076;DHT22;57446;51.056;3.712;2022-07-11T20:36:45;24.90;56.10
70076;DHT22;57446;51.056;3.712;2022-07-11T20:44:10;25.00;56.40
70076;DHT22;57446;51.056;3.712;2022-07-11T21:02:12;24.50;58.00
70076;DHT22;57446;51.056;3.712;2022-07-11T21:07:43;24.40;58.60
70076;DHT22;57446;51.056;3.712;2022-07-11T21:10:37;24.30;59.20
70076;DHT22;57446;51.056;3.712;2022-07-11T21:13:45;24.20;59.40
70076;DHT22;57446;51.056;3.712;2022-07-11T21:16:31;24.20;59.60
70076;DHT22;57446;51.056;3.712;2022-07-11T21:25:30;24.20;60.00
70076;DHT22;57446;51.056;3.712;2022-07-11T21:31:27;24.10;60.60
70076;DHT22;57446;51.056;3.712;2022-07-11T21:34:37;24.00;60.50
70076;DHT22;57446;51.056;3.712;2022-07-11T21:40:26;23.90;61.80
70076;DHT22;57446;51.056;3.712;2022-07-11T21:49:58;23.70;62.90
70076;DHT22;57446;51.056;3.712;2022-07-11T21:52:45;23.60;63.10
70076;DHT22;57446;51.056;3.712;2022-07-11T21:55:43;23.70;63.40
70076;DHT22;57446;51.056;3.712;2022-07-11T22:07:51;23.50;64.10
70076;DHT22;57446;51.056;3.712;2022-07-11T22:10:43;23.50;64.30
70076;DHT22;57446;51.056;3.712;2022-07-11T22:13:34;23.40;64.40
70076;DHT22;57446;51.056;3.712;2022-07-11T22:16:31;23.20;64.90
70076;DHT22;57446;51.056;3.712;2022-07-11T22:19:17;23.30;65.00
70076;DHT22;57446;51.056;3.712;2022-07-11T22:22:09;23.20;64.90
70076;DHT22;57446;51.056;3.712;2022-07-11T22:24:58;23.20;65.00
70076;DHT22;57446;51.056;3.712;2022-07-11T22:27:49;23.30;64.50
70076;DHT22;57446;51.056;3.712;2022-07-11T22:30:37;23.20;64.80
70076;DHT22;57446;51.056;3.712;2022-07-11T22:33:25;23.20;65.30
70076;DHT22;57446;51.056;3.712;2022-07-11T22:36:14;23.10;65.40
70076;DHT22;57446;51.056;3.712;2022-07-11T22:39:13;23.10;65.30
70076;DHT22;57446;51.056;3.712;2022-07-11T22:42:06;23.10;65.20
70076;DHT22;57446;51.056;3.712;2022-07-11T22:48:31;22.70;66.10
70076;DHT22;57446;51.056;3.712;2022-07-11T22:51:23;22.60;66.60
70076;DHT22;57446;51.056;3.712;2022-07-11T22:54:34;22.50;66.80
70076;DHT22;57446;51.056;3.712;2022-07-11T22:57:22;22.50;67.00
70076;DHT22;57446;51.056;3.712;2022-07-11T23:00:36;22.40;67.30
70076;DHT22;57446;51.056;3.712;2022-07-11T23:03:25;22.10;68.00
70076;DHT22;57446;51.056;3.712;2022-07-11T23:06:17;22.00;68.60
70076;DHT22;57446;51.056;3.712;2022-07-11T23:09:04;22.00;69.10
70076;DHT22;57446;51.056;3.712;2022-07-11T23:11:53;21.80;69.60
70076;DHT22;57446;51.056;3.712;2022-07-11T23:14:54;21.80;69.60
70076;DHT22;57446;51.056;3.712;2022-07-11T23:17:49;21.80;69.80
70076;DHT22;57446;51.056;3.712;2022-07-11T23:20:47;21.70;70.00
70076;DHT22;57446;51.056;3.712;2022-07-11T23:30:07;21.50;70.80
70076;DHT22;57446;51.056;3.712;2022-07-11T23:33:10;21.40;70.50
70076;DHT22;57446;51.056;3.712;2022-07-11T23:39:46;21.40;70.70
70076;DHT22;57446;51.056;3.712;2022-07-11T23:42:36;21.30;71.00
70076;DHT22;57446;51.056;3.712;2022-07-11T23:48:54;21.20;70.50
70076;DHT22;57446;51.056;3.712;2022-07-11T23:51:44;21.20;70.20
70076;DHT22;57446;51.056;3.712;2022-07-11T23:54:37;21.20;70.20
70076;DHT22;57446;51.056;3.712;2022-07-11T23:57:35;21.20;70.40
